createdAt,value
2022-11-09T00:00:43.833Z,6.90
2022-11-09T00:03:13.688Z,8.57
2022-11-09T00:05:41.817Z,11.03
2022-11-09T00:08:10.751Z,10.20
2022-11-09T00:10:38.979Z,7.00
2022-11-09T00:13:07.022Z,6.30
2022-11-09T00:15:35.234Z,6.20
2022-11-09T00:18:03.647Z,6.33
2022-11-09T00:20:32.823Z,6.40
2022-11-09T00:23:00.782Z,6.50
2022-11-09T00:25:28.705Z,6.33
2022-11-09T00:27:56.574Z,5.70
2022-11-09T00:30:27.593Z,5.63
2022-11-09T00:32:56.527Z,3.40
2022-11-09T00:35:24.331Z,2.90
2022-11-09T00:37:53.578Z,2.93
2022-11-09T00:40:21.558Z,2.70
2022-11-09T00:42:49.780Z,2.60
2022-11-09T00:45:18.352Z,2.00
2022-11-09T00:47:46.396Z,2.20
2022-11-09T00:50:14.320Z,2.27
2022-11-09T00:52:42.598Z,2.00
2022-11-09T00:55:12.308Z,2.00
2022-11-09T00:57:40.154Z,2.07
2022-11-09T01:00:09.040Z,2.00
2022-11-09T01:02:36.878Z,2.10
2022-11-09T01:05:05.371Z,1.87
2022-11-09T01:07:33.288Z,1.77
2022-11-09T01:10:01.170Z,1.77
2022-11-09T01:12:30.404Z,1.90
2022-11-09T01:14:58.288Z,1.93
2022-11-09T01:17:26.893Z,1.90
2022-11-09T01:19:56.276Z,1.63
2022-11-09T01:22:24.247Z,1.80
2022-11-09T01:24:52.164Z,2.10
2022-11-09T01:27:20.038Z,1.73
2022-11-09T01:29:49.219Z,2.07
2022-11-09T01:32:17.109Z,1.67
2022-11-09T01:34:44.944Z,1.93
2022-11-09T01:37:12.830Z,1.77
2022-11-09T01:39:40.733Z,1.90
2022-11-09T01:42:08.699Z,1.60
2022-11-09T01:44:38.792Z,1.80
2022-11-09T01:47:15.739Z,1.60
2022-11-09T01:49:50.682Z,1.70
2022-11-09T01:52:23.598Z,1.70
2022-11-09T01:54:56.091Z,1.70
2022-11-09T01:57:30.115Z,1.73
2022-11-09T02:00:01.633Z,1.90
2022-11-09T02:02:30.894Z,1.80
2022-11-09T02:05:03.569Z,1.60
2022-11-09T02:07:31.461Z,1.50
2022-11-09T02:10:04.927Z,1.70
2022-11-09T02:12:35.550Z,1.70
2022-11-09T02:15:06.002Z,2.00
2022-11-09T02:17:35.796Z,1.90
2022-11-09T02:20:10.347Z,1.67
2022-11-09T02:22:38.318Z,2.00
2022-11-09T02:25:07.676Z,2.07
2022-11-09T02:27:38.644Z,2.67
2022-11-09T02:30:08.223Z,1.50
2022-11-09T02:32:37.020Z,1.90
2022-11-09T02:35:05.318Z,2.20
2022-11-09T02:37:38.971Z,2.70
2022-11-09T02:40:14.886Z,2.37
2022-11-09T02:42:43.023Z,2.00
2022-11-09T02:45:11.910Z,2.33
2022-11-09T02:47:41.435Z,2.30
2022-11-09T02:50:10.176Z,2.20
2022-11-09T02:52:39.452Z,2.90
2022-11-09T02:55:08.229Z,2.70
2022-11-09T02:57:36.495Z,2.10
2022-11-09T03:00:06.995Z,2.37
2022-11-09T03:02:36.718Z,2.30
2022-11-09T03:05:04.967Z,2.60
2022-11-09T03:07:33.354Z,2.80
2022-11-09T03:10:02.748Z,2.47
2022-11-09T03:12:30.944Z,2.53
2022-11-09T03:15:12.093Z,2.50
2022-11-09T03:17:44.938Z,2.50
2022-11-09T03:20:13.335Z,2.40
2022-11-09T03:22:42.388Z,2.20
2022-11-09T03:25:11.953Z,2.30
2022-11-09T03:27:39.998Z,2.73
2022-11-09T03:30:10.407Z,2.30
2022-11-09T03:32:38.315Z,2.70
2022-11-09T03:35:08.287Z,2.30
2022-11-09T03:37:36.485Z,2.43
2022-11-09T03:40:05.677Z,2.33
2022-11-09T03:42:35.181Z,2.40
2022-11-09T03:45:03.101Z,2.60
2022-11-09T03:47:31.040Z,2.47
2022-11-09T03:49:58.893Z,2.40
2022-11-09T03:52:26.768Z,2.30
2022-11-09T03:54:54.616Z,2.43
2022-11-09T03:57:22.517Z,2.60
2022-11-09T03:59:51.786Z,2.63
2022-11-09T04:02:19.697Z,2.80
2022-11-09T04:04:47.643Z,2.67
2022-11-09T04:07:15.867Z,2.73
2022-11-09T04:09:43.787Z,2.80
2022-11-09T04:12:12.264Z,2.57
2022-11-09T04:14:40.185Z,3.10
2022-11-09T04:17:09.383Z,2.63
2022-11-09T04:19:37.507Z,3.27
2022-11-09T04:22:06.510Z,3.10
2022-11-09T04:24:34.384Z,2.93
2022-11-09T04:27:02.312Z,2.80
2022-11-09T04:29:30.188Z,2.90
2022-11-09T04:31:58.118Z,3.00
2022-11-09T04:34:27.393Z,2.60
2022-11-09T04:36:55.408Z,2.80
2022-11-09T04:39:23.316Z,3.03
2022-11-09T04:41:51.239Z,2.63
2022-11-09T04:44:19.221Z,3.03
2022-11-09T04:46:59.165Z,3.57
2022-11-09T04:49:28.785Z,4.20
2022-11-09T04:51:56.723Z,4.67
2022-11-09T04:54:24.591Z,4.50
2022-11-09T04:56:52.517Z,4.47
2022-11-09T04:59:20.465Z,3.90
2022-11-09T05:01:48.406Z,3.33
2022-11-09T05:04:16.303Z,3.50
2022-11-09T05:06:45.748Z,3.77
2022-11-09T05:09:13.889Z,2.83
2022-11-09T05:11:41.818Z,3.60
2022-11-09T05:14:09.654Z,3.87
2022-11-09T05:16:37.606Z,4.50
2022-11-09T05:19:05.552Z,4.10
2022-11-09T05:21:33.418Z,4.10
2022-11-09T05:24:05.269Z,4.93
2022-11-09T05:26:34.455Z,5.70
2022-11-09T05:29:06.319Z,5.87
2022-11-09T05:31:34.841Z,6.10
2022-11-09T05:34:03.602Z,5.87
2022-11-09T05:36:33.475Z,5.47
2022-11-09T05:39:02.289Z,5.47
2022-11-09T05:41:31.428Z,5.60
2022-11-09T05:43:59.364Z,5.77
2022-11-09T05:46:27.817Z,5.53
2022-11-09T05:48:55.732Z,5.70
2022-11-09T05:51:23.544Z,5.67
2022-11-09T05:53:51.440Z,5.57
2022-11-09T05:56:19.467Z,5.70
2022-11-09T05:58:48.713Z,5.23
2022-11-09T06:01:18.902Z,5.50
2022-11-09T06:03:47.538Z,5.53
2022-11-09T06:06:16.856Z,5.30
2022-11-09T06:08:44.705Z,5.73
2022-11-09T06:11:18.516Z,5.43
2022-11-09T06:13:52.555Z,5.70
2022-11-09T06:16:20.499Z,6.13
2022-11-09T06:18:48.461Z,5.70
2022-11-09T06:21:16.310Z,5.47
2022-11-09T06:23:44.696Z,6.47
2022-11-09T06:26:13.993Z,5.70
2022-11-09T06:28:42.641Z,5.70
2022-11-09T06:31:14.529Z,4.77
2022-11-09T06:33:42.553Z,5.20
2022-11-09T06:36:11.454Z,5.53
2022-11-09T06:38:39.552Z,6.13
2022-11-09T06:41:07.953Z,6.20
2022-11-09T06:43:36.613Z,6.50
2022-11-09T06:46:05.253Z,6.27
2022-11-09T06:48:34.597Z,6.07
2022-11-09T06:51:03.295Z,5.10
2022-11-09T06:53:33.331Z,5.40
2022-11-09T06:56:02.967Z,5.60
2022-11-09T06:58:31.542Z,5.63
2022-11-09T07:01:00.559Z,5.27
2022-11-09T07:03:28.537Z,3.97
2022-11-09T07:05:57.873Z,4.00
2022-11-09T07:08:25.807Z,4.17
2022-11-09T07:10:53.858Z,3.60
2022-11-09T07:13:21.989Z,3.83
2022-11-09T07:15:55.203Z,5.70
2022-11-09T07:18:23.137Z,4.77
2022-11-09T07:20:51.324Z,4.50
2022-11-09T07:23:21.173Z,4.47
2022-11-09T07:25:49.346Z,5.00
2022-11-09T07:28:17.423Z,4.43
2022-11-09T07:30:45.323Z,4.00
2022-11-09T07:33:16.026Z,4.00
2022-11-09T07:35:44.020Z,4.20
2022-11-09T07:38:12.100Z,4.47
2022-11-09T07:40:41.714Z,4.30
2022-11-09T07:43:09.682Z,3.67
2022-11-09T07:45:39.643Z,4.20
2022-11-09T07:48:09.733Z,3.83
2022-11-09T07:50:38.831Z,3.17
2022-11-09T07:53:08.145Z,3.40
2022-11-09T07:55:36.960Z,3.53
2022-11-09T07:58:08.532Z,3.00
2022-11-09T08:00:38.111Z,2.80
2022-11-09T08:03:06.813Z,3.53
2022-11-09T08:05:35.153Z,3.13
2022-11-09T08:08:04.989Z,2.83
2022-11-09T08:10:34.619Z,2.70
2022-11-09T08:13:04.241Z,3.43
2022-11-09T08:15:35.369Z,3.70
2022-11-09T08:18:05.765Z,3.17
2022-11-09T08:20:34.648Z,2.80
2022-11-09T08:23:04.685Z,2.73
2022-11-09T08:25:34.021Z,2.97
2022-11-09T08:28:03.247Z,2.90
2022-11-09T08:30:31.527Z,3.30
2022-11-09T08:33:02.087Z,3.10
2022-11-09T08:35:31.452Z,2.60
2022-11-09T08:38:02.445Z,3.00
2022-11-09T08:40:30.824Z,3.10
2022-11-09T08:43:03.351Z,2.90
2022-11-09T08:45:33.003Z,2.80
2022-11-09T08:48:02.782Z,3.00
2022-11-09T08:50:32.889Z,2.83
2022-11-09T08:53:01.487Z,2.67
2022-11-09T08:55:29.464Z,3.10
2022-11-09T08:57:59.241Z,2.43
2022-11-09T09:00:27.791Z,2.70
2022-11-09T09:02:55.818Z,2.40
2022-11-09T09:05:26.520Z,2.67
2022-11-09T09:07:54.554Z,2.37
2022-11-09T09:10:22.523Z,2.43
2022-11-09T09:12:50.674Z,2.40
2022-11-09T09:15:18.859Z,2.10
2022-11-09T09:17:46.981Z,2.20
2022-11-09T09:20:14.937Z,2.27
2022-11-09T09:22:44.460Z,1.90
2022-11-09T09:25:12.572Z,2.67
2022-11-09T09:27:40.474Z,2.33
2022-11-09T09:30:09.600Z,2.23
2022-11-09T09:32:37.609Z,2.03
2022-11-09T09:35:06.313Z,1.70
2022-11-09T09:37:34.229Z,2.00
2022-11-09T09:40:03.598Z,1.40
2022-11-09T09:42:34.804Z,1.60
2022-11-09T09:45:06.644Z,1.40
2022-11-09T09:47:47.063Z,1.40
2022-11-09T09:50:18.700Z,1.30
2022-11-09T09:53:17.660Z,1.30
2022-11-09T09:55:44.883Z,1.20
2022-11-09T09:58:15.203Z,1.30
2022-11-09T10:00:44.477Z,1.30
2022-11-09T10:03:18.486Z,1.47
2022-11-09T10:05:55.108Z,1.40
2022-11-09T10:08:34.622Z,1.40
2022-11-09T10:11:17.514Z,1.20
2022-11-09T10:14:00.095Z,1.20
2022-11-09T10:16:36.013Z,1.13
2022-11-09T10:19:23.822Z,1.30
2022-11-09T10:21:58.683Z,1.37
2022-11-09T10:24:44.441Z,1.40
2022-11-09T10:27:30.750Z,1.60
2022-11-09T10:30:02.059Z,1.30
2022-11-09T10:32:32.644Z,1.40
2022-11-09T10:35:08.135Z,1.40
2022-11-09T10:37:40.124Z,1.47
2022-11-09T10:40:16.911Z,1.40
2022-11-09T10:43:10.974Z,1.50
2022-11-09T10:46:04.960Z,1.73
2022-11-09T10:48:52.259Z,1.50
2022-11-09T10:51:42.699Z,1.70
2022-11-09T10:54:32.529Z,1.53
2022-11-09T10:57:21.465Z,1.77
2022-11-09T11:00:16.148Z,1.40
2022-11-09T11:03:12.356Z,1.63
2022-11-09T11:06:00.265Z,1.70
2022-11-09T11:08:48.149Z,1.80
2022-11-09T11:11:37.103Z,1.60
2022-11-09T11:14:30.263Z,1.90
2022-11-09T11:17:25.594Z,1.40
2022-11-09T11:20:30.385Z,1.63
2022-11-09T11:23:19.474Z,1.60
2022-11-09T11:26:27.751Z,1.70
2022-11-09T11:29:34.714Z,1.80
2022-11-09T11:32:24.401Z,1.67
2022-11-09T11:35:15.142Z,1.47
2022-11-09T11:38:16.585Z,1.70
2022-11-09T11:41:39.680Z,1.53
2022-11-09T11:44:43.688Z,1.57
2022-11-09T11:47:38.314Z,1.60
2022-11-09T11:50:33.933Z,1.93
2022-11-09T11:53:34.072Z,1.60
2022-11-09T11:56:28.098Z,1.90
2022-11-09T11:59:30.605Z,1.60
2022-11-09T12:02:41.497Z,1.80
2022-11-09T12:05:54.376Z,1.50
2022-11-09T12:09:03.596Z,1.70
2022-11-09T12:12:03.476Z,1.67
2022-11-09T12:15:05.032Z,1.50
2022-11-09T12:18:04.353Z,1.47
2022-11-09T12:20:58.951Z,1.60
2022-11-09T12:24:03.509Z,1.50
2022-11-09T12:27:30.312Z,1.77
2022-11-09T12:30:17.467Z,1.57
2022-11-09T12:33:09.909Z,1.87
2022-11-09T12:36:00.383Z,2.00
2022-11-09T12:39:00.625Z,1.43
2022-11-09T12:41:49.439Z,1.63
2022-11-09T12:44:40.973Z,1.70
2022-11-09T12:47:31.622Z,1.60
2022-11-09T12:50:23.255Z,1.60
2022-11-09T12:53:10.232Z,2.30
2022-11-09T12:56:02.576Z,1.87
2022-11-09T12:58:49.306Z,1.70
2022-11-09T13:01:46.443Z,1.60
2022-11-09T13:04:33.426Z,1.67
2022-11-09T13:07:39.445Z,2.00
2022-11-09T13:10:32.173Z,1.50
2022-11-09T13:13:24.792Z,1.33
2022-11-09T13:16:13.661Z,1.43
2022-11-09T13:19:00.056Z,1.40
2022-11-09T13:21:46.608Z,1.30
2022-11-09T13:24:56.512Z,1.20
2022-11-09T13:27:47.188Z,1.40
2022-11-09T13:30:42.361Z,1.50
2022-11-09T13:33:29.492Z,1.70
2022-11-09T13:36:20.135Z,1.50
2022-11-09T13:39:30.790Z,1.67
2022-11-09T13:42:30.672Z,1.40
2022-11-09T13:45:28.726Z,1.30
2022-11-09T13:48:43.780Z,1.60
2022-11-09T13:51:46.035Z,1.40
2022-11-09T13:54:34.052Z,1.70
2022-11-09T13:57:21.964Z,1.30
2022-11-09T14:00:19.614Z,1.67
2022-11-09T14:03:23.830Z,1.50
2022-11-09T14:06:13.728Z,1.50
2022-11-09T14:09:01.780Z,1.70
2022-11-09T14:12:01.474Z,1.80
2022-11-09T14:15:10.394Z,1.50
2022-11-09T14:18:08.303Z,1.60
2022-11-09T14:21:00.821Z,1.40
2022-11-09T14:23:48.833Z,1.60
2022-11-09T14:26:35.613Z,1.80
2022-11-09T14:29:24.194Z,1.70
2022-11-09T14:32:35.589Z,1.80
2022-11-09T14:35:26.406Z,1.97
2022-11-09T14:38:19.745Z,1.70
2022-11-09T14:41:06.842Z,1.77
2022-11-09T14:43:55.616Z,1.80
2022-11-09T14:46:42.326Z,1.80
2022-11-09T14:49:30.678Z,1.70
2022-11-09T14:52:22.418Z,2.20
2022-11-09T14:55:14.563Z,1.90
2022-11-09T14:58:01.595Z,1.77
2022-11-09T15:01:08.658Z,1.63
2022-11-09T15:04:13.744Z,1.60
2022-11-09T15:07:04.460Z,2.00
2022-11-09T15:09:53.892Z,2.00
2022-11-09T15:12:46.316Z,2.43
2022-11-09T15:15:35.422Z,2.70
2022-11-09T15:18:27.938Z,3.00
2022-11-09T15:21:20.969Z,3.13
2022-11-09T15:24:16.126Z,3.03
2022-11-09T15:27:02.504Z,2.67
2022-11-09T15:29:49.083Z,3.63
2022-11-09T15:32:40.564Z,3.00
2022-11-09T15:35:27.204Z,3.27
2022-11-09T15:38:30.245Z,2.70
2022-11-09T15:41:20.397Z,2.57
2022-11-09T15:44:07.586Z,3.17
2022-11-09T15:46:54.908Z,2.77
2022-11-09T15:49:41.650Z,2.97
2022-11-09T15:52:29.154Z,3.20
2022-11-09T15:55:16.159Z,3.50
2022-11-09T15:58:03.957Z,7.77
2022-11-09T16:00:50.575Z,4.40
2022-11-09T16:03:36.981Z,6.37
2022-11-09T16:06:23.650Z,3.60
2022-11-09T16:09:11.865Z,3.47
2022-11-09T16:11:58.432Z,5.13
2022-11-09T16:14:46.334Z,4.40
2022-11-09T16:17:33.051Z,3.70
2022-11-09T16:20:21.344Z,4.37
2022-11-09T16:23:09.165Z,3.80
2022-11-09T16:25:55.474Z,3.50
2022-11-09T16:28:43.143Z,6.57
2022-11-09T16:31:53.557Z,3.80
2022-11-09T16:34:37.696Z,8.27
2022-11-09T16:37:24.761Z,16.17
2022-11-09T16:40:14.661Z,17.17
2022-11-09T16:43:01.687Z,15.67
2022-11-09T16:45:51.091Z,9.07
2022-11-09T16:48:38.696Z,5.40
2022-11-09T16:51:25.321Z,4.43
2022-11-09T16:54:12.080Z,4.10
2022-11-09T16:56:58.997Z,4.90
2022-11-09T16:59:45.655Z,3.97
2022-11-09T17:02:32.339Z,2.97
2022-11-09T17:05:20.378Z,4.63
2022-11-09T17:08:07.458Z,3.57
2022-11-09T17:10:53.774Z,4.43
2022-11-09T17:13:40.850Z,4.10
2022-11-09T17:16:28.057Z,3.23
2022-11-09T17:19:14.738Z,2.87
2022-11-09T17:22:02.468Z,3.50
2022-11-09T17:24:48.827Z,3.20
2022-11-09T17:27:35.546Z,3.30
2022-11-09T17:30:23.188Z,3.70
2022-11-09T17:33:09.606Z,4.40
2022-11-09T17:36:00.791Z,4.40
2022-11-09T17:38:48.893Z,4.20
2022-11-09T17:41:39.969Z,3.60
2022-11-09T17:44:28.883Z,4.60
2022-11-09T17:47:15.562Z,2.90
2022-11-09T17:50:02.330Z,2.47
2022-11-09T17:52:49.115Z,2.90
2022-11-09T17:55:38.341Z,3.20
2022-11-09T17:58:25.396Z,3.80
2022-11-09T18:01:14.465Z,3.63
2022-11-09T18:04:05.456Z,3.37
2022-11-09T18:06:53.056Z,3.63
2022-11-09T18:09:41.782Z,2.80
2022-11-09T18:12:30.117Z,3.23
2022-11-09T18:15:16.666Z,2.90
2022-11-09T18:18:03.061Z,2.53
2022-11-09T18:20:49.731Z,3.00
2022-11-09T18:23:37.612Z,3.53
2022-11-09T18:26:24.232Z,6.57
2022-11-09T18:29:12.133Z,8.40
2022-11-09T18:31:58.634Z,6.47
2022-11-09T18:34:45.512Z,4.30
2022-11-09T18:37:35.255Z,3.07
2022-11-09T18:40:21.766Z,3.40
2022-11-09T18:43:08.408Z,2.30
2022-11-09T18:46:01.096Z,1.93
2022-11-09T18:48:51.528Z,2.23
2022-11-09T18:51:38.123Z,2.20
2022-11-09T18:54:24.785Z,2.20
2022-11-09T18:57:13.787Z,3.90
2022-11-09T19:00:05.461Z,3.03
2022-11-09T19:02:53.328Z,2.63
2022-11-09T19:05:40.457Z,2.13
2022-11-09T19:08:44.515Z,2.50
2022-11-09T19:11:31.857Z,2.20
2022-11-09T19:14:18.584Z,2.40
2022-11-09T19:17:06.060Z,1.80
2022-11-09T19:19:54.006Z,1.97
2022-11-09T19:22:40.623Z,1.90
2022-11-09T19:25:27.135Z,1.80
2022-11-09T19:28:13.693Z,1.80
2022-11-09T19:31:00.522Z,1.50
2022-11-09T19:33:47.134Z,1.57
2022-11-09T19:36:35.126Z,1.57
2022-11-09T19:39:22.140Z,1.63
2022-11-09T19:42:08.724Z,1.63
2022-11-09T19:45:01.644Z,1.60
2022-11-09T19:47:49.970Z,2.00
2022-11-09T19:50:36.425Z,1.80
2022-11-09T19:53:24.332Z,1.50
2022-11-09T19:56:11.637Z,1.30
2022-11-09T19:59:00.896Z,1.97
2022-11-09T20:01:47.751Z,1.30
2022-11-09T20:04:34.409Z,1.40
2022-11-09T20:07:20.991Z,1.30
2022-11-09T20:10:09.948Z,1.50
2022-11-09T20:12:56.329Z,1.40
2022-11-09T20:15:43.082Z,1.10
2022-11-09T20:18:29.718Z,1.17
2022-11-09T20:21:16.571Z,1.30
2022-11-09T20:24:03.500Z,1.43
2022-11-09T20:26:51.220Z,1.30
2022-11-09T20:29:38.072Z,1.47
2022-11-09T20:32:25.424Z,1.50
2022-11-09T20:35:12.076Z,1.27
2022-11-09T20:37:58.707Z,1.17
2022-11-09T20:40:45.474Z,1.50
2022-11-09T20:43:34.153Z,1.10
2022-11-09T20:46:22.823Z,1.37
2022-11-09T20:49:10.384Z,4.27
2022-11-09T20:51:58.642Z,2.67
2022-11-09T20:54:45.265Z,1.70
2022-11-09T20:57:31.922Z,2.93
2022-11-09T21:00:24.366Z,9.67
2022-11-09T21:03:12.147Z,9.83
2022-11-09T21:06:00.907Z,14.10
2022-11-09T21:08:49.793Z,7.00
2022-11-09T21:11:36.235Z,4.10
2022-11-09T21:14:22.941Z,3.20
2022-11-09T21:17:11.420Z,2.50
2022-11-09T21:19:57.919Z,2.50
2022-11-09T21:22:58.424Z,1.70
2022-11-09T21:26:02.876Z,1.83
2022-11-09T21:29:07.086Z,1.40
2022-11-09T21:31:53.668Z,1.40
2022-11-09T21:34:41.590Z,1.80
2022-11-09T21:37:27.959Z,1.97
2022-11-09T21:40:14.637Z,2.00
2022-11-09T21:43:01.306Z,2.10
2022-11-09T21:45:50.858Z,2.90
2022-11-09T21:48:37.308Z,1.93
2022-11-09T21:51:25.441Z,2.30
2022-11-09T21:54:11.994Z,1.97
2022-11-09T21:56:58.700Z,3.60
2022-11-09T21:59:45.104Z,1.80
2022-11-09T22:02:31.754Z,2.20
2022-11-09T22:05:22.772Z,2.50
2022-11-09T22:08:11.162Z,2.77
2022-11-09T22:11:06.108Z,2.40
2022-11-09T22:14:10.157Z,2.37
2022-11-09T22:16:56.794Z,2.80
2022-11-09T22:20:01.393Z,3.10
2022-11-09T22:22:48.578Z,3.10
2022-11-09T22:25:36.535Z,2.90
2022-11-09T22:28:23.304Z,2.33
2022-11-09T22:31:10.775Z,3.00
2022-11-09T22:33:57.155Z,2.30
2022-11-09T22:36:44.171Z,2.30
2022-11-09T22:39:30.893Z,2.10
2022-11-09T22:42:18.713Z,2.23
2022-11-09T22:45:06.289Z,2.43
2022-11-09T22:47:53.179Z,2.20
2022-11-09T22:50:39.921Z,2.20
2022-11-09T22:53:26.520Z,2.17
2022-11-09T22:56:13.189Z,2.07
2022-11-09T22:59:01.303Z,2.37
2022-11-09T23:01:47.966Z,2.30
2022-11-09T23:04:34.468Z,2.10
2022-11-09T23:07:21.380Z,2.13
2022-11-09T23:10:10.200Z,2.67
2022-11-09T23:12:56.516Z,2.53
2022-11-09T23:15:44.389Z,3.17
2022-11-09T23:18:48.480Z,2.67
2022-11-09T23:21:36.750Z,2.60
2022-11-09T23:24:36.965Z,2.70
2022-11-09T23:27:23.466Z,2.47
2022-11-09T23:30:10.809Z,2.03
2022-11-09T23:33:01.331Z,2.17
2022-11-09T23:35:48.046Z,2.07
2022-11-09T23:38:35.053Z,2.10
2022-11-09T23:41:22.097Z,2.60
2022-11-09T23:44:08.816Z,2.67
2022-11-09T23:46:55.204Z,2.40
2022-11-09T23:49:43.074Z,2.17
2022-11-09T23:52:29.606Z,2.47
2022-11-09T23:55:16.678Z,2.00
2022-11-09T23:58:03.903Z,2.10
